createdAt,value
2018-01-23T00:01:10.285Z,8.43
2018-01-23T00:03:37.913Z,7.93
2018-01-23T00:06:05.460Z,8.25
2018-01-23T00:08:33.029Z,8.13
2018-01-23T00:11:00.597Z,9.35
2018-01-23T00:13:29.065Z,8.20
2018-01-23T00:15:56.653Z,8.07
2018-01-23T00:18:24.269Z,8.20
2018-01-23T00:20:51.856Z,8.65
2018-01-23T00:23:19.458Z,8.18
2018-01-23T00:25:47.777Z,8.73
2018-01-23T00:28:15.354Z,8.88
2018-01-23T00:30:42.981Z,8.25
2018-01-23T00:33:10.549Z,10.63
2018-01-23T00:35:38.314Z,8.23
2018-01-23T00:38:05.864Z,9.70
2018-01-23T00:40:33.413Z,10.50
2018-01-23T00:43:00.977Z,9.45
2018-01-23T00:45:29.321Z,8.93
2018-01-23T00:47:56.859Z,9.55
2018-01-23T00:50:25.249Z,9.32
2018-01-23T00:52:52.797Z,9.25
2018-01-23T00:55:20.346Z,8.80
2018-01-23T00:57:47.906Z,7.60
2018-01-23T01:00:15.453Z,9.27
2018-01-23T01:02:43.017Z,11.73
2018-01-23T01:05:10.609Z,8.52
2018-01-23T01:07:38.174Z,10.10
2018-01-23T01:10:05.745Z,10.52
2018-01-23T01:12:33.316Z,8.70
2018-01-23T01:15:00.889Z,9.40
2018-01-23T01:17:29.225Z,9.02
2018-01-23T01:19:56.779Z,11.05
2018-01-23T01:22:24.332Z,10.52
2018-01-23T01:24:51.886Z,10.57
2018-01-23T01:27:19.452Z,10.13
2018-01-23T01:29:47.026Z,8.85
2018-01-23T01:32:14.573Z,9.63
2018-01-23T01:34:42.174Z,10.48
2018-01-23T01:37:09.754Z,9.35
2018-01-23T01:39:37.309Z,9.65
2018-01-23T01:42:04.873Z,10.57
2018-01-23T01:44:32.593Z,9.55
2018-01-23T01:47:00.146Z,9.55
2018-01-23T01:49:27.729Z,9.63
2018-01-23T01:51:55.281Z,10.07
2018-01-23T01:54:22.843Z,8.77
2018-01-23T01:56:50.425Z,9.45
2018-01-23T01:59:17.971Z,10.57
2018-01-23T02:01:45.556Z,10.30
2018-01-23T02:04:13.110Z,9.68
2018-01-23T02:06:40.661Z,10.63
2018-01-23T02:09:08.201Z,9.85
2018-01-23T02:11:35.764Z,11.57
2018-01-23T02:14:03.329Z,10.43
2018-01-23T02:16:30.885Z,10.82
2018-01-23T02:18:58.457Z,9.73
2018-01-23T02:21:26.013Z,11.32
2018-01-23T02:23:53.580Z,9.90
2018-01-23T02:26:21.332Z,7.97
2018-01-23T02:28:48.884Z,10.73
2018-01-23T02:31:17.214Z,10.40
2018-01-23T02:33:44.781Z,9.93
2018-01-23T02:36:12.362Z,10.82
2018-01-23T02:38:40.797Z,9.75
2018-01-23T02:41:08.345Z,9.40
2018-01-23T02:43:35.904Z,10.18
2018-01-23T02:46:03.463Z,9.88
2018-01-23T02:48:31.801Z,10.07
2018-01-23T02:50:59.356Z,9.80
2018-01-23T02:53:27.005Z,9.82
2018-01-23T02:55:54.721Z,9.77
2018-01-23T02:58:23.029Z,9.32
2018-01-23T03:00:50.688Z,9.02
2018-01-23T03:03:18.245Z,10.20
2018-01-23T03:05:45.813Z,10.38
2018-01-23T03:08:13.369Z,9.60
2018-01-23T03:10:40.948Z,10.20
2018-01-23T03:13:09.495Z,8.93
2018-01-23T03:15:37.829Z,9.85
2018-01-23T03:18:05.378Z,9.35
2018-01-23T03:20:33.106Z,8.65
2018-01-23T03:23:01.417Z,10.60
2018-01-23T03:25:29.126Z,8.15
2018-01-23T03:27:57.440Z,8.25
2018-01-23T03:30:25.102Z,9.65
2018-01-23T03:32:52.689Z,9.98
2018-01-23T03:35:20.238Z,8.30
2018-01-23T03:37:47.811Z,8.85
2018-01-23T03:40:15.335Z,8.90
2018-01-23T03:42:43.673Z,9.02
2018-01-23T03:45:11.222Z,7.87
2018-01-23T03:47:38.794Z,8.02
2018-01-23T03:50:06.337Z,7.75
2018-01-23T03:52:33.886Z,8.20
2018-01-23T03:55:01.447Z,8.38
2018-01-23T03:57:29.096Z,9.02
2018-01-23T03:59:57.411Z,8.25
2018-01-23T04:02:25.057Z,9.13
2018-01-23T04:04:52.606Z,7.15
2018-01-23T04:07:21.160Z,7.95
2018-01-23T04:09:49.482Z,7.78
2018-01-23T04:12:17.036Z,8.35
2018-01-23T04:14:44.591Z,7.87
2018-01-23T04:17:13.037Z,7.62
2018-01-23T04:19:40.598Z,7.25
2018-01-23T04:22:08.161Z,7.25
2018-01-23T04:24:35.885Z,6.75
2018-01-23T04:27:03.438Z,7.62
2018-01-23T04:29:31.003Z,6.97
2018-01-23T04:31:58.556Z,6.55
2018-01-23T04:34:26.197Z,7.75
2018-01-23T04:36:53.725Z,7.37
2018-01-23T04:39:21.292Z,6.00
2018-01-23T04:41:48.838Z,7.28
2018-01-23T04:44:16.416Z,7.82
2018-01-23T04:46:43.972Z,6.05
2018-01-23T04:49:11.551Z,6.40
2018-01-23T04:51:39.104Z,7.18
2018-01-23T04:54:06.721Z,7.68
2018-01-23T04:56:34.271Z,7.43
2018-01-23T04:59:01.916Z,5.47
2018-01-23T05:01:30.452Z,6.68
2018-01-23T05:03:58.003Z,6.43
2018-01-23T05:06:25.562Z,5.15
2018-01-23T05:08:53.129Z,6.75
2018-01-23T05:11:20.752Z,6.85
2018-01-23T05:13:49.125Z,5.53
2018-01-23T05:16:17.482Z,5.57
2018-01-23T05:18:45.026Z,5.65
2018-01-23T05:21:12.665Z,5.80
2018-01-23T05:23:40.213Z,6.12
2018-01-23T05:26:07.766Z,5.60
2018-01-23T05:28:35.382Z,6.72
2018-01-23T05:31:02.988Z,6.82
2018-01-23T05:33:30.609Z,6.78
2018-01-23T05:35:58.276Z,6.82
2018-01-23T05:38:25.885Z,7.70
2018-01-23T05:40:53.424Z,8.13
2018-01-23T05:43:21.762Z,8.63
2018-01-23T05:45:49.310Z,7.93
2018-01-23T05:48:16.896Z,9.38
2018-01-23T05:50:44.536Z,9.35
2018-01-23T05:53:12.105Z,8.82
2018-01-23T05:55:39.683Z,8.60
2018-01-23T05:58:07.267Z,10.40
2018-01-23T06:00:35.746Z,9.45
2018-01-23T06:03:03.302Z,9.10
2018-01-23T06:05:30.853Z,9.20
2018-01-23T06:07:58.492Z,9.48
2018-01-23T06:10:26.072Z,10.35
2018-01-23T06:12:53.633Z,9.27
2018-01-23T06:15:21.319Z,9.30
2018-01-23T06:17:49.776Z,11.15
2018-01-23T06:20:17.332Z,10.55
2018-01-23T06:22:45.025Z,10.20
2018-01-23T06:25:12.581Z,10.00
2018-01-23T06:27:40.927Z,10.88
2018-01-23T06:30:08.710Z,9.70
2018-01-23T06:32:36.260Z,10.93
2018-01-23T06:35:03.830Z,10.98
2018-01-23T06:37:31.402Z,11.20
2018-01-23T06:39:58.973Z,11.73
2018-01-23T06:42:27.550Z,10.77
2018-01-23T06:44:55.117Z,11.18
2018-01-23T06:47:22.822Z,10.85
2018-01-23T06:49:50.497Z,11.60
2018-01-23T06:52:18.066Z,11.07
2018-01-23T06:54:45.629Z,9.65
2018-01-23T06:57:13.206Z,10.23
2018-01-23T06:59:40.767Z,16.00
2018-01-23T07:02:08.374Z,10.00
2018-01-23T07:04:35.953Z,9.20
2018-01-23T07:07:03.536Z,9.35
2018-01-23T07:09:31.165Z,8.73
2018-01-23T07:11:59.529Z,10.50
2018-01-23T07:14:27.320Z,8.85
2018-01-23T07:16:54.999Z,10.20
2018-01-23T07:19:23.364Z,11.20
2018-01-23T07:21:51.702Z,11.05
2018-01-23T07:24:19.311Z,11.77
2018-01-23T07:26:46.856Z,10.20
2018-01-23T07:29:15.305Z,10.75
2018-01-23T07:31:42.965Z,12.00
2018-01-23T07:34:10.573Z,9.23
2018-01-23T07:36:38.137Z,10.43
2018-01-23T07:39:05.695Z,10.52
2018-01-23T07:41:33.261Z,10.95
2018-01-23T07:44:00.829Z,9.70
2018-01-23T07:46:29.229Z,9.40
2018-01-23T07:48:56.921Z,8.98
2018-01-23T07:51:24.521Z,7.55
2018-01-23T07:53:52.619Z,8.65
2018-01-23T07:56:20.959Z,8.35
2018-01-23T07:58:48.505Z,7.95
2018-01-23T08:01:16.194Z,7.95
2018-01-23T08:03:43.746Z,7.47
2018-01-23T08:06:11.319Z,7.30
2018-01-23T08:08:38.869Z,6.87
2018-01-23T08:11:06.429Z,8.13
2018-01-23T08:13:33.989Z,8.68
2018-01-23T08:16:01.569Z,8.90
2018-01-23T08:18:29.126Z,7.20
2018-01-23T08:20:56.679Z,8.65
2018-01-23T08:23:24.240Z,7.60
2018-01-23T08:25:51.796Z,6.25
2018-01-23T08:28:19.383Z,7.18
2018-01-23T08:30:46.937Z,6.40
2018-01-23T08:33:14.493Z,6.87
2018-01-23T08:35:42.142Z,7.30
2018-01-23T08:38:09.729Z,6.70
2018-01-23T08:40:37.288Z,7.68
2018-01-23T08:43:04.929Z,6.57
2018-01-23T08:45:32.528Z,5.80
2018-01-23T08:48:00.121Z,6.25
2018-01-23T08:50:27.859Z,6.32
2018-01-23T08:52:55.448Z,5.80
2018-01-23T08:55:23.022Z,5.75
2018-01-23T08:57:50.593Z,5.85
2018-01-23T09:00:18.218Z,5.45
2018-01-23T09:02:46.640Z,5.63
2018-01-23T09:05:14.237Z,6.47
2018-01-23T09:07:41.789Z,5.87
2018-01-23T09:10:09.360Z,5.17
2018-01-23T09:12:36.993Z,4.90
2018-01-23T09:15:04.570Z,6.23
2018-01-23T09:17:32.209Z,5.63
2018-01-23T09:19:59.976Z,4.60
2018-01-23T09:22:27.535Z,4.90
2018-01-23T09:24:55.106Z,5.60
2018-01-23T09:27:22.833Z,4.93
2018-01-23T09:29:51.149Z,4.80
2018-01-23T09:32:18.693Z,4.70
2018-01-23T09:34:46.369Z,5.70
2018-01-23T09:37:13.926Z,4.90
2018-01-23T09:39:41.473Z,5.60
2018-01-23T09:42:09.081Z,4.90
2018-01-23T09:44:36.708Z,5.13
2018-01-23T09:47:04.280Z,5.17
2018-01-23T09:49:31.894Z,6.50
2018-01-23T09:51:59.481Z,5.47
2018-01-23T09:54:27.830Z,4.30
2018-01-23T09:56:55.405Z,4.77
2018-01-23T09:59:23.747Z,5.10
2018-01-23T10:01:51.297Z,5.00
2018-01-23T10:04:18.885Z,5.27
2018-01-23T10:06:46.605Z,4.60
2018-01-23T10:09:14.304Z,4.13
2018-01-23T10:11:41.855Z,4.73
2018-01-23T10:14:09.562Z,4.72
2018-01-23T10:16:37.153Z,4.10
2018-01-23T10:19:04.753Z,3.87
2018-01-23T10:21:32.475Z,4.57
2018-01-23T10:24:00.789Z,4.57
2018-01-23T10:26:28.352Z,3.73
2018-01-23T10:28:56.082Z,4.73
2018-01-23T10:31:24.415Z,4.00
2018-01-23T10:33:51.974Z,4.57
2018-01-23T10:36:19.547Z,4.27
2018-01-23T10:38:47.105Z,3.53
2018-01-23T10:41:14.717Z,4.50
2018-01-23T10:43:42.298Z,3.70
2018-01-23T10:46:09.989Z,3.97
2018-01-23T10:48:37.562Z,4.80
2018-01-23T10:51:05.232Z,4.30
2018-01-23T10:53:32.905Z,3.70
2018-01-23T10:56:00.463Z,4.00
2018-01-23T10:58:28.025Z,3.87
2018-01-23T11:01:01.122Z,4.10
2018-01-23T11:03:28.670Z,4.00
2018-01-23T11:05:57.114Z,3.93
2018-01-23T11:08:24.697Z,4.50
2018-01-23T11:10:52.240Z,3.37
2018-01-23T11:13:19.817Z,3.60
2018-01-23T11:15:48.390Z,5.47
2018-01-23T11:18:15.954Z,3.27
2018-01-23T11:20:43.505Z,3.80
2018-01-23T11:23:11.073Z,3.20
2018-01-23T11:25:38.636Z,3.30
2018-01-23T11:28:06.197Z,3.70
2018-01-23T11:30:33.751Z,3.77
2018-01-23T11:33:01.313Z,3.07
2018-01-23T11:35:28.877Z,2.83
2018-01-23T11:37:57.460Z,3.43
2018-01-23T11:40:25.184Z,2.80
2018-01-23T11:42:52.845Z,3.97
2018-01-23T11:45:20.485Z,3.40
2018-01-23T11:47:48.033Z,2.63
2018-01-23T11:50:15.635Z,4.10
2018-01-23T11:52:43.189Z,3.43
2018-01-23T11:55:10.933Z,3.70
2018-01-23T11:57:38.488Z,3.20
2018-01-23T12:00:06.037Z,4.17
2018-01-23T12:02:33.601Z,3.33
2018-01-23T12:05:01.172Z,3.80
2018-01-23T12:07:29.676Z,4.20
2018-01-23T12:09:57.353Z,3.73
2018-01-23T12:12:24.941Z,3.60
2018-01-23T12:14:53.704Z,3.70
2018-01-23T12:17:21.280Z,4.33
2018-01-23T12:19:49.622Z,3.60
2018-01-23T12:22:17.220Z,4.00
2018-01-23T12:24:45.553Z,3.60
2018-01-23T12:27:13.122Z,5.20
2018-01-23T12:29:40.940Z,4.00
2018-01-23T12:32:09.269Z,5.00
2018-01-23T12:34:36.912Z,3.50
2018-01-23T12:37:04.548Z,3.87
2018-01-23T12:39:32.862Z,4.17
2018-01-23T12:42:00.485Z,3.43
2018-01-23T12:44:28.914Z,4.40
2018-01-23T12:46:56.497Z,3.67
2018-01-23T12:49:24.053Z,4.10
2018-01-23T12:51:51.640Z,3.63
2018-01-23T12:54:19.963Z,4.60
2018-01-23T12:56:47.639Z,3.73
2018-01-23T12:59:15.181Z,4.00
2018-01-23T13:01:42.792Z,4.20
2018-01-23T13:04:10.372Z,4.60
2018-01-23T13:06:39.411Z,4.20
2018-01-23T13:09:06.988Z,4.10
2018-01-23T13:11:34.586Z,4.67
2018-01-23T13:14:02.307Z,5.03
2018-01-23T13:16:29.877Z,4.27
2018-01-23T13:18:57.458Z,5.00
2018-01-23T13:21:25.035Z,3.90
2018-01-23T13:23:52.674Z,3.57
2018-01-23T13:26:20.251Z,3.77
2018-01-23T13:28:47.833Z,3.77
2018-01-23T13:31:15.436Z,3.97
2018-01-23T13:33:43.000Z,4.13
2018-01-23T13:36:10.564Z,4.17
2018-01-23T13:38:38.110Z,3.60
2018-01-23T13:41:05.675Z,3.93
2018-01-23T13:43:33.413Z,3.10
2018-01-23T13:46:01.830Z,3.67
2018-01-23T13:48:29.426Z,3.10
2018-01-23T13:50:57.093Z,3.50
2018-01-23T13:53:24.692Z,3.70
2018-01-23T13:55:53.899Z,3.10
2018-01-23T13:58:21.469Z,3.40
2018-01-23T14:00:49.055Z,3.53
2018-01-23T14:03:16.634Z,3.87
2018-01-23T14:05:44.274Z,3.20
2018-01-23T14:08:12.914Z,3.93
2018-01-23T14:10:41.257Z,4.10
2018-01-23T14:13:08.817Z,3.10
2018-01-23T14:15:36.437Z,3.50
2018-01-23T14:18:04.005Z,3.50
2018-01-23T14:20:31.589Z,4.40
2018-01-23T14:22:59.288Z,2.70
2018-01-23T14:25:26.854Z,2.90
2018-01-23T14:27:55.244Z,2.90
2018-01-23T14:30:23.571Z,3.13
2018-01-23T14:32:51.222Z,3.20
2018-01-23T14:35:18.954Z,2.80
2018-01-23T14:37:47.278Z,3.57
2018-01-23T14:40:14.934Z,2.60
2018-01-23T14:42:42.490Z,2.57
2018-01-23T14:45:10.854Z,2.43
2018-01-23T14:47:38.444Z,2.87
2018-01-23T14:50:06.070Z,2.63
2018-01-23T14:52:33.642Z,2.73
2018-01-23T14:55:01.227Z,2.57
2018-01-23T14:57:28.909Z,2.63
2018-01-23T14:59:56.471Z,2.50
2018-01-23T15:02:24.058Z,2.17
2018-01-23T15:04:52.393Z,2.37
2018-01-23T15:07:20.248Z,2.20
2018-01-23T15:09:47.824Z,2.70
2018-01-23T15:12:15.387Z,2.53
2018-01-23T15:14:43.030Z,2.50
2018-01-23T15:17:10.666Z,2.83
2018-01-23T15:19:38.410Z,2.60
2018-01-23T15:22:06.104Z,3.57
2018-01-23T15:24:34.464Z,2.20
2018-01-23T15:27:02.510Z,2.60
2018-01-23T15:29:30.084Z,3.07
2018-01-23T15:31:57.646Z,3.13
2018-01-23T15:34:25.204Z,2.50
2018-01-23T15:36:52.833Z,2.60
2018-01-23T15:39:20.426Z,3.63
2018-01-23T15:41:47.981Z,2.60
2018-01-23T15:44:15.579Z,2.47
2018-01-23T15:46:43.906Z,2.83
2018-01-23T15:49:12.082Z,2.37
2018-01-23T15:51:39.835Z,2.40
2018-01-23T15:54:07.381Z,2.63
2018-01-23T15:56:35.083Z,2.50
2018-01-23T15:59:02.793Z,2.37
2018-01-23T16:01:31.249Z,2.30
2018-01-23T16:03:58.825Z,2.43
2018-01-23T16:06:26.443Z,2.83
2018-01-23T16:08:54.031Z,2.40
2018-01-23T16:11:21.581Z,2.33
2018-01-23T16:13:49.298Z,2.57
2018-01-23T16:16:16.882Z,2.90
2018-01-23T16:18:44.449Z,2.90
2018-01-23T16:21:12.017Z,3.50
2018-01-23T16:23:39.585Z,2.63
2018-01-23T16:26:07.655Z,4.43
2018-01-23T16:28:35.353Z,1.97
2018-01-23T16:31:02.987Z,2.43
2018-01-23T16:33:30.738Z,2.40
2018-01-23T16:35:58.374Z,2.67
2018-01-23T16:38:26.690Z,2.57
2018-01-23T16:40:54.295Z,2.20
2018-01-23T16:43:23.727Z,2.70
2018-01-23T16:45:52.915Z,2.40
2018-01-23T16:48:21.393Z,2.50
2018-01-23T16:50:48.926Z,1.93
2018-01-23T16:53:16.497Z,2.67
2018-01-23T16:55:44.059Z,1.67
2018-01-23T16:58:11.781Z,2.50
2018-01-23T17:00:39.326Z,3.17
2018-01-23T17:03:06.938Z,2.10
2018-01-23T17:05:34.553Z,2.20
2018-01-23T17:08:02.109Z,2.37
2018-01-23T17:10:29.722Z,2.30
2018-01-23T17:12:57.280Z,2.00
2018-01-23T17:15:24.886Z,1.90
2018-01-23T17:17:53.228Z,2.60
2018-01-23T17:20:20.821Z,2.60
2018-01-23T17:22:48.427Z,1.83
2018-01-23T17:25:15.970Z,2.10
2018-01-23T17:27:43.538Z,2.23
2018-01-23T17:30:11.169Z,2.60
2018-01-23T17:32:39.510Z,1.70
2018-01-23T17:35:07.085Z,1.83
2018-01-23T17:37:34.649Z,2.13
2018-01-23T17:40:02.224Z,2.80
2018-01-23T17:42:30.545Z,2.67
2018-01-23T17:44:58.181Z,1.90
2018-01-23T17:47:26.709Z,2.00
2018-01-23T17:49:54.269Z,2.50
2018-01-23T17:52:21.840Z,1.93
2018-01-23T17:54:49.401Z,2.03
2018-01-23T17:57:16.961Z,2.30
2018-01-23T17:59:45.526Z,2.17
2018-01-23T18:02:13.209Z,1.93
2018-01-23T18:04:41.794Z,2.10
2018-01-23T18:07:09.353Z,2.10
2018-01-23T18:09:36.928Z,2.20
2018-01-23T18:12:04.605Z,1.90
2018-01-23T18:14:32.206Z,2.73
2018-01-23T18:16:59.769Z,2.53
2018-01-23T18:19:28.216Z,1.97
2018-01-23T18:21:55.797Z,1.90
2018-01-23T18:24:24.227Z,1.93
2018-01-23T18:26:51.881Z,1.97
2018-01-23T18:29:19.461Z,1.87
2018-01-23T18:31:47.041Z,1.93
2018-01-23T18:34:15.885Z,2.00
2018-01-23T18:36:44.222Z,2.03
2018-01-23T18:39:11.797Z,1.50
2018-01-23T18:41:39.367Z,2.40
2018-01-23T18:44:06.914Z,2.27
2018-01-23T18:46:34.489Z,1.97
2018-01-23T18:49:02.561Z,2.20
2018-01-23T18:51:30.117Z,2.00
2018-01-23T18:53:58.465Z,2.13
2018-01-23T18:56:26.118Z,2.83
2018-01-23T18:58:53.704Z,1.87
2018-01-23T19:01:21.286Z,2.23
2018-01-23T19:03:50.588Z,2.40
2018-01-23T19:06:18.238Z,2.17
2018-01-23T19:08:46.901Z,2.20
2018-01-23T19:11:14.466Z,1.83
2018-01-23T19:13:42.028Z,2.50
2018-01-23T19:16:10.441Z,2.53
2018-01-23T19:18:38.799Z,2.07
2018-01-23T19:21:06.385Z,2.10
2018-01-23T19:23:34.190Z,2.17
2018-01-23T19:26:01.821Z,2.40
2018-01-23T19:28:29.514Z,2.03
2018-01-23T19:30:58.331Z,2.33
2018-01-23T19:33:26.711Z,2.70
2018-01-23T19:35:54.287Z,1.97
2018-01-23T19:38:21.862Z,1.97
2018-01-23T19:40:50.012Z,2.30
2018-01-23T19:43:17.701Z,1.70
2018-01-23T19:45:45.647Z,2.03
2018-01-23T19:48:13.267Z,2.43
2018-01-23T19:50:42.111Z,2.13
2018-01-23T19:53:09.879Z,2.37
2018-01-23T19:55:37.463Z,1.97
2018-01-23T19:58:05.403Z,2.57
2018-01-23T20:00:33.028Z,1.73
2018-01-23T20:03:01.748Z,2.17
2018-01-23T20:05:29.821Z,2.30
2018-01-23T20:07:57.802Z,1.97
2018-01-23T20:10:26.238Z,2.30
2018-01-23T20:12:54.862Z,2.60
2018-01-23T20:15:22.833Z,1.97
2018-01-23T20:17:50.555Z,1.90
2018-01-23T20:20:18.164Z,2.00
2018-01-23T20:22:46.030Z,1.77
2018-01-23T20:25:14.003Z,2.53
2018-01-23T20:27:42.075Z,2.33
2018-01-23T20:30:09.851Z,1.90
2018-01-23T20:32:37.488Z,2.50
2018-01-23T20:35:05.962Z,2.67
2018-01-23T20:37:35.274Z,1.47
2018-01-23T20:40:03.596Z,2.33
2018-01-23T20:42:31.218Z,1.87
2018-01-23T20:44:58.853Z,2.07
2018-01-23T20:47:27.219Z,1.67
2018-01-23T20:49:54.793Z,2.10
2018-01-23T20:52:22.500Z,2.47
2018-01-23T20:54:50.099Z,1.97
2018-01-23T20:57:17.725Z,2.10
2018-01-23T20:59:45.290Z,2.03
2018-01-23T21:02:12.970Z,2.30
2018-01-23T21:04:40.522Z,1.93
2018-01-23T21:07:08.123Z,1.70
2018-01-23T21:09:35.690Z,1.90
2018-01-23T21:12:03.283Z,1.93
2018-01-23T21:14:30.962Z,1.70
2018-01-23T21:16:58.661Z,1.90
2018-01-23T21:19:26.221Z,2.10
2018-01-23T21:21:53.802Z,2.30
2018-01-23T21:24:21.501Z,1.83
2018-01-23T21:26:49.101Z,1.90
2018-01-23T21:29:16.704Z,1.73
2018-01-23T21:31:44.286Z,1.80
2018-01-23T21:34:11.885Z,1.90
2018-01-23T21:36:39.458Z,1.63
2018-01-23T21:39:07.028Z,1.90
2018-01-23T21:41:34.604Z,1.80
2018-01-23T21:44:02.176Z,2.03
2018-01-23T21:46:29.716Z,1.90
2018-01-23T21:48:57.353Z,1.73
2018-01-23T21:51:25.110Z,1.57
2018-01-23T21:53:53.545Z,1.50
2018-01-23T21:56:21.136Z,1.30
2018-01-23T21:58:48.958Z,1.60
2018-01-23T22:01:17.460Z,1.30
2018-01-23T22:03:45.033Z,1.30
2018-01-23T22:06:12.603Z,1.27
2018-01-23T22:08:40.946Z,1.00
2018-01-23T22:11:08.509Z,1.57
2018-01-23T22:13:36.109Z,1.17
2018-01-23T22:16:03.713Z,1.47
2018-01-23T22:18:32.056Z,1.10
2018-01-23T22:20:59.629Z,1.10
2018-01-23T22:23:27.229Z,0.90
2018-01-23T22:25:54.810Z,1.00
2018-01-23T22:28:22.397Z,0.93
2018-01-23T22:30:50.738Z,1.10
2018-01-23T22:33:18.307Z,1.00
2018-01-23T22:35:45.974Z,1.10
2018-01-23T22:38:13.525Z,1.03
2018-01-23T22:40:41.095Z,1.47
2018-01-23T22:43:08.662Z,1.00
2018-01-23T22:45:36.224Z,1.10
2018-01-23T22:48:03.929Z,1.00
2018-01-23T22:50:31.617Z,1.00
2018-01-23T22:52:59.174Z,1.07
2018-01-23T22:55:27.633Z,1.20
2018-01-23T22:57:55.200Z,0.90
2018-01-23T23:00:22.762Z,0.70
2018-01-23T23:02:51.256Z,0.80
2018-01-23T23:05:19.610Z,1.00
2018-01-23T23:07:47.216Z,1.10
2018-01-23T23:10:15.741Z,0.80
2018-01-23T23:12:43.936Z,1.07
2018-01-23T23:15:11.604Z,0.80
2018-01-23T23:17:39.174Z,0.97
2018-01-23T23:20:06.734Z,1.00
2018-01-23T23:22:35.101Z,1.10
2018-01-23T23:25:02.810Z,1.20
2018-01-23T23:27:30.401Z,1.30
2018-01-23T23:29:57.982Z,1.27
2018-01-23T23:32:25.575Z,0.93
2018-01-23T23:34:53.290Z,0.90
2018-01-23T23:37:20.903Z,0.70
2018-01-23T23:39:48.504Z,0.90
2018-01-23T23:42:16.071Z,0.80
2018-01-23T23:44:43.768Z,0.70
2018-01-23T23:47:11.414Z,1.07
2018-01-23T23:49:39.894Z,1.43
2018-01-23T23:52:07.444Z,0.80
2018-01-23T23:54:35.010Z,0.80
2018-01-23T23:57:02.594Z,0.80
2018-01-23T23:59:30.270Z,0.60
